Saint Croix Beach, Minnesota
Current Conditions -  °F | °C
As of 7:11 PM on Saturday 20 Dec 2014 (Local Time) from K21D Reporting Station
Overcast Overcast  
Wind Chill: 25°   Ceiling: 1300
Heat Index: 32°   Visibility: 10mi
Dew Point: 30°   Wind: 8mph
Humidity: 93%   Direction: 150°SSE
Pressure: 30.11"   Gusts: NA
Location:  44.9414°N, 92.7724°W
Report Text: K21D 210111Z AUTO 15007KT 10SM OVC013 00/M01 A3011 RMK AO2
Loading
Personal Weather Stations






























Interactive Weather Map New forecast layout! Learn more

10-Day Weather Forecast

Advertisements
Track Severe Weather on mobile